Impacts TAF Board INFO
FOR SITUATIONAL AWARENESS. NOT TO BE USED FOR FLIGHT PLANNING PURPOSES.
IDs:

KPHL - Philadelphia Intl, PA, US

Issued at 2332 UTC 24 Jun 2017
Updated at 0159 UTC 25 Jun 2017
Potential Impact None Slight Moderate High
Time0154Z 25/02Z 25/03Z 25/04Z 25/05Z 25/06Z 25/07Z 25/08Z 25/09Z 25/10Z 25/11Z 25/12Z 25/13Z 25/14Z>>
Type OBS PRVL PRVL PRVL PRVL PRVL PRVL PRVL PRVL PRVL PRVL PRVL PRVL PRVL
VIS 10 >6 >6 >6 >6 >6 >6 >6 >6 >6 >6 >6 >6 >6
CIG -- -- -- -- -- -- -- -- -- -- -- -- -- --
Cover SCT FEW FEW FEW FEW FEW FEW FEW FEW FEW FEW FEW FEW FEW
FltCat VFR VFR VFR VFR VFR VFR VFR VFR VFR VFR VFR VFR VFR VFR
WX -- -- -- -- -- -- -- -- -- -- -- -- -- --
WDir 240 260 260 260 260 260 260 260 260 290 290 290 290 290
WSpd 6 10 10 10 10 10 10 10 10 4 4 4 4 4
WGst -- -- -- -- -- -- -- -- -- -- -- -- -- --

Raw TAF
KPHL 242332Z 2500/2606 26010KT P6SM FEW250
  FM251000 29004KT P6SM FEW130
  FM251700 28010G18KT P6SM SCT250
  FM252300 25009KT P6SM FEW250


Raw METAR
KPHL 250154Z 24006KT 10SM SCT250 26/16 A2992 RMK AO2 SLP130 T02560156 $
KPHL 250054Z 23008KT 10SM FEW250 27/16 A2988 RMK AO2 SLP119 T02720156 $
KPHL 242354Z 23008KT 10SM FEW065 BKN250 28/15 A2987 RMK AO2 SLP113 T02830150 10311 20283 53008 $
KPHL 242254Z 26012KT 10SM FEW065 BKN250 29/13 A2986 RMK AO2 SLP109 T02940133 $

METAR Board
Radar Display
Forecast Discussion

FOR SITUATIONAL AWARENESS. NOT TO BE USED FOR FLIGHT PLANNING PURPOSES.

Page loaded:  01:59 UTC  |   06:59 PM Pacific  |   07:59 PM Mountain  |   08:59 PM Central  |   09:59 PM Eastern

 

ADVISORIES

FORECASTS

FORECASTS

OBSERVATIONS

USER TOOLS

ABOUT US